createdAt,value
2022-07-31T00:00:15.188Z,62.94
2022-07-31T00:02:42.192Z,60.47
2022-07-31T00:05:09.821Z,59.41
2022-07-31T00:07:37.147Z,59.53
2022-07-31T00:10:05.941Z,61.86
2022-07-31T00:12:34.807Z,62.34
2022-07-31T00:15:07.505Z,63.35
2022-07-31T00:17:34.733Z,63.60
2022-07-31T00:20:02.121Z,64.16
2022-07-31T00:22:29.230Z,66.40
2022-07-31T00:24:56.629Z,67.79
2022-07-31T00:27:24.167Z,68.93
2022-07-31T00:29:51.414Z,71.25
2022-07-31T00:32:18.530Z,70.49
2022-07-31T00:34:45.516Z,69.93
2022-07-31T00:37:12.452Z,73.07
2022-07-31T00:39:39.429Z,74.80
2022-07-31T00:42:16.081Z,76.37
2022-07-31T00:44:43.030Z,74.85
2022-07-31T00:47:14.974Z,78.57
2022-07-31T00:49:42.296Z,77.55
2022-07-31T00:52:09.416Z,76.30
2022-07-31T00:54:36.394Z,77.31
2022-07-31T00:57:04.411Z,76.66
2022-07-31T00:59:31.985Z,78.37
2022-07-31T01:01:59.723Z,78.95
2022-07-31T01:04:27.343Z,79.73
2022-07-31T01:06:55.742Z,82.54
2022-07-31T01:09:22.963Z,83.28
2022-07-31T01:12:16.369Z,84.90
2022-07-31T01:14:56.946Z,84.31
2022-07-31T01:17:27.929Z,84.75
2022-07-31T01:19:55.078Z,88.71
2022-07-31T01:22:57.311Z,88.26
2022-07-31T01:25:47.576Z,86.91
2022-07-31T01:28:53.741Z,89.25
2022-07-31T01:31:57.575Z,90.62
2022-07-31T01:34:46.645Z,88.57
2022-07-31T01:37:42.458Z,90.87
2022-07-31T01:40:16.937Z,91.36
2022-07-31T01:42:51.846Z,91.78
2022-07-31T01:45:20.953Z,91.32
2022-07-31T01:47:49.029Z,92.67
2022-07-31T01:50:42.524Z,92.56
2022-07-31T01:53:05.015Z,94.83
2022-07-31T01:56:02.248Z,94.74
2022-07-31T01:58:23.906Z,94.50
2022-07-31T02:00:58.320Z,93.15
2022-07-31T02:03:43.636Z,95.75
2022-07-31T02:06:18.955Z,92.52
2022-07-31T02:08:49.157Z,98.13
2022-07-31T02:11:19.955Z,98.29
2022-07-31T02:13:48.925Z,98.24
2022-07-31T02:16:19.517Z,100.00
2022-07-31T02:18:52.603Z,100.00
2022-07-31T02:21:26.033Z,100.00
2022-07-31T02:23:53.414Z,100.00
2022-07-31T02:26:21.807Z,100.00
2022-07-31T02:28:51.015Z,100.00
2022-07-31T02:31:18.522Z,100.00
2022-07-31T02:33:49.301Z,100.00
2022-07-31T02:36:19.978Z,100.00
2022-07-31T02:38:48.809Z,100.00
2022-07-31T02:41:18.104Z,100.00
2022-07-31T02:43:46.843Z,100.00
2022-07-31T02:46:25.041Z,100.00
2022-07-31T02:48:52.833Z,100.00
2022-07-31T02:51:23.889Z,100.00
2022-07-31T02:53:51.554Z,100.00
2022-07-31T02:56:19.558Z,100.00
2022-07-31T02:58:47.595Z,100.00
2022-07-31T03:01:21.512Z,100.00
2022-07-31T03:03:50.126Z,100.00
2022-07-31T03:06:18.078Z,100.00
2022-07-31T03:08:45.449Z,100.00
2022-07-31T03:11:16.482Z,100.00
2022-07-31T03:13:45.190Z,100.00
2022-07-31T03:16:12.890Z,100.00
2022-07-31T03:18:41.616Z,100.00
2022-07-31T03:21:11.048Z,100.00
2022-07-31T03:23:39.066Z,100.00
2022-07-31T03:26:11.169Z,100.00
2022-07-31T03:28:39.117Z,100.00
2022-07-31T03:31:10.412Z,100.00
2022-07-31T03:33:37.419Z,100.00
2022-07-31T03:36:05.466Z,100.00
2022-07-31T03:38:39.303Z,100.00
2022-07-31T03:41:18.605Z,100.00
2022-07-31T03:43:48.585Z,100.00
2022-07-31T03:46:22.504Z,100.00
2022-07-31T03:48:52.490Z,100.00
2022-07-31T03:51:20.167Z,100.00
2022-07-31T03:53:48.971Z,100.00
2022-07-31T03:56:56.737Z,100.00
2022-07-31T03:59:25.847Z,100.00
2022-07-31T04:01:58.349Z,100.00
2022-07-31T04:04:44.554Z,100.00
2022-07-31T04:07:11.680Z,100.00
2022-07-31T04:09:38.812Z,100.00
2022-07-31T04:12:07.347Z,100.00
2022-07-31T04:14:34.518Z,100.00
2022-07-31T04:17:01.565Z,100.00
2022-07-31T04:19:31.665Z,100.00
2022-07-31T04:21:59.714Z,100.00
2022-07-31T04:24:27.293Z,100.00
2022-07-31T04:27:10.875Z,100.00
2022-07-31T04:29:46.872Z,100.00
2022-07-31T04:32:14.970Z,100.00
2022-07-31T04:34:52.885Z,100.00
2022-07-31T04:37:20.264Z,100.00
2022-07-31T04:39:47.605Z,100.00
2022-07-31T04:42:15.436Z,100.00
2022-07-31T04:44:42.475Z,100.00
2022-07-31T04:47:09.496Z,100.00
2022-07-31T04:49:42.041Z,100.00
2022-07-31T04:52:11.289Z,100.00
2022-07-31T04:54:39.471Z,100.00
2022-07-31T04:57:08.780Z,100.00
2022-07-31T04:59:57.937Z,100.00
2022-07-31T05:02:22.808Z,100.00
2022-07-31T05:04:56.332Z,100.00
2022-07-31T05:07:28.603Z,100.00
2022-07-31T05:09:58.543Z,100.00
2022-07-31T05:12:26.070Z,100.00
2022-07-31T05:14:53.510Z,100.00
2022-07-31T05:17:20.837Z,100.00
2022-07-31T05:20:06.745Z,100.00
2022-07-31T05:22:56.230Z,100.00
2022-07-31T05:25:43.655Z,100.00
2022-07-31T05:28:10.656Z,100.00
2022-07-31T05:30:39.328Z,100.00
2022-07-31T05:33:06.803Z,100.00
2022-07-31T05:35:33.834Z,100.00
2022-07-31T05:38:00.998Z,100.00
2022-07-31T05:40:46.302Z,100.00
2022-07-31T05:43:38.470Z,100.00
2022-07-31T05:46:29.048Z,100.00
2022-07-31T05:48:56.073Z,100.00
2022-07-31T05:51:23.184Z,100.00
2022-07-31T05:53:50.365Z,100.00
2022-07-31T05:56:35.681Z,100.00
2022-07-31T05:59:02.946Z,100.00
2022-07-31T06:01:30.193Z,100.00
2022-07-31T06:03:57.314Z,100.00
2022-07-31T06:06:30.457Z,100.00
2022-07-31T06:09:03.748Z,100.00
2022-07-31T06:11:35.085Z,100.00
2022-07-31T06:14:02.123Z,100.00
2022-07-31T06:16:39.071Z,100.00
2022-07-31T06:19:06.059Z,100.00
2022-07-31T06:21:33.061Z,100.00
2022-07-31T06:24:00.192Z,100.00
2022-07-31T06:26:38.878Z,100.00
2022-07-31T06:29:07.169Z,100.00
2022-07-31T06:31:34.410Z,100.00
2022-07-31T06:34:01.645Z,100.00
2022-07-31T06:36:37.358Z,100.00
2022-07-31T06:39:07.630Z,100.00
2022-07-31T06:41:49.707Z,100.00
2022-07-31T06:44:46.383Z,100.00
2022-07-31T06:47:32.456Z,100.00
2022-07-31T06:50:15.902Z,100.00
2022-07-31T06:52:53.179Z,100.00
2022-07-31T06:55:22.689Z,100.00
2022-07-31T06:57:51.487Z,100.00
2022-07-31T07:00:20.447Z,100.00
2022-07-31T07:02:50.610Z,100.00
2022-07-31T07:05:17.949Z,99.59
2022-07-31T07:07:48.008Z,98.06
2022-07-31T07:10:15.201Z,97.82
2022-07-31T07:13:11.256Z,97.74
2022-07-31T07:15:38.271Z,97.07
2022-07-31T07:18:06.928Z,98.33
2022-07-31T07:20:39.048Z,98.74
2022-07-31T07:23:06.378Z,99.50
2022-07-31T07:25:42.167Z,98.40
2022-07-31T07:28:15.179Z,97.75
2022-07-31T07:30:56.593Z,95.88
2022-07-31T07:33:41.082Z,96.76
2022-07-31T07:36:23.656Z,94.07
2022-07-31T07:38:56.225Z,90.10
2022-07-31T07:41:25.169Z,87.98
2022-07-31T07:43:53.215Z,85.31
2022-07-31T07:46:23.846Z,85.73
2022-07-31T07:48:57.769Z,82.09
2022-07-31T07:51:59.703Z,78.40
2022-07-31T07:54:40.064Z,77.74
2022-07-31T07:57:15.103Z,76.62
2022-07-31T08:00:01.626Z,72.27
2022-07-31T08:03:46.665Z,72.43
2022-07-31T08:05:39.980Z,68.71
2022-07-31T08:08:07.125Z,69.56
2022-07-31T08:10:49.805Z,69.48
2022-07-31T08:13:23.693Z,68.10
2022-07-31T08:16:09.100Z,66.14
2022-07-31T08:18:44.963Z,63.95
2022-07-31T08:21:12.232Z,63.17
2022-07-31T08:23:39.215Z,61.30
2022-07-31T08:26:10.417Z,56.54
2022-07-31T08:28:38.661Z,53.53
2022-07-31T08:31:05.824Z,53.59
2022-07-31T08:33:39.287Z,53.23
2022-07-31T08:36:09.125Z,55.14
2022-07-31T08:38:37.046Z,54.52
2022-07-31T08:41:22.747Z,55.79
2022-07-31T08:43:59.932Z,56.26
2022-07-31T08:46:40.986Z,56.80
2022-07-31T08:49:09.924Z,56.35
2022-07-31T08:51:51.623Z,56.07
2022-07-31T08:54:24.122Z,55.27
2022-07-31T08:56:52.909Z,53.60
2022-07-31T08:59:21.912Z,52.00
2022-07-31T09:01:49.376Z,49.73
2022-07-31T09:04:17.147Z,49.41
2022-07-31T09:06:45.192Z,48.36
2022-07-31T09:09:12.349Z,48.79
2022-07-31T09:11:55.805Z,48.56
2022-07-31T09:14:49.454Z,46.92
2022-07-31T09:17:17.216Z,48.06
2022-07-31T09:19:51.982Z,48.14
2022-07-31T09:22:31.207Z,47.71
2022-07-31T09:25:12.144Z,46.35
2022-07-31T09:27:43.250Z,45.26
2022-07-31T09:30:12.270Z,44.03
2022-07-31T09:33:18.708Z,42.97
2022-07-31T09:36:00.960Z,42.18
2022-07-31T09:38:44.053Z,41.44
2022-07-31T09:41:58.067Z,41.48
2022-07-31T09:44:15.961Z,40.94
2022-07-31T09:46:49.702Z,40.74
2022-07-31T09:49:17.169Z,41.26
2022-07-31T09:51:48.296Z,40.49
2022-07-31T09:54:25.790Z,40.81
2022-07-31T09:57:13.678Z,39.62
2022-07-31T09:59:44.255Z,38.71
2022-07-31T10:02:15.517Z,38.80
2022-07-31T10:04:48.673Z,38.75
2022-07-31T10:07:24.434Z,38.52
2022-07-31T10:10:07.705Z,38.59
2022-07-31T10:12:50.226Z,38.07
2022-07-31T10:15:20.062Z,37.76
2022-07-31T10:17:59.364Z,38.75
2022-07-31T10:20:54.727Z,37.45
2022-07-31T10:23:45.590Z,36.38
2022-07-31T10:26:13.985Z,37.13
2022-07-31T10:28:42.681Z,36.86
2022-07-31T10:31:12.481Z,37.03
2022-07-31T10:33:44.053Z,37.19
2022-07-31T10:36:48.524Z,36.57
2022-07-31T10:40:24.574Z,35.85
2022-07-31T10:43:24.586Z,35.52
2022-07-31T10:46:25.809Z,34.99
2022-07-31T10:49:08.837Z,35.64
2022-07-31T10:51:55.005Z,35.88
2022-07-31T10:54:46.903Z,35.87
2022-07-31T10:57:34.985Z,35.76
2022-07-31T11:00:33.667Z,35.19
2022-07-31T11:03:46.042Z,34.23
2022-07-31T11:06:41.521Z,34.18
2022-07-31T11:09:30.226Z,34.02
2022-07-31T11:12:27.927Z,34.32
2022-07-31T11:15:24.171Z,33.64
2022-07-31T11:18:25.244Z,33.48
2022-07-31T11:21:36.076Z,32.85
2022-07-31T11:24:03.836Z,33.32
2022-07-31T11:26:41.295Z,33.63
2022-07-31T11:29:58.943Z,33.29
2022-07-31T11:32:06.435Z,32.85
2022-07-31T11:34:57.098Z,32.89
2022-07-31T11:37:46.187Z,33.24
2022-07-31T11:40:19.667Z,33.26
2022-07-31T11:43:00.044Z,32.81
2022-07-31T11:45:33.380Z,32.82
2022-07-31T11:48:12.225Z,32.68
2022-07-31T11:50:42.693Z,32.21
2022-07-31T11:53:09.830Z,32.33
2022-07-31T11:55:54.509Z,32.12
2022-07-31T11:58:23.581Z,32.05
2022-07-31T12:01:00.470Z,31.93
2022-07-31T12:03:36.705Z,32.18
2022-07-31T12:06:06.168Z,31.33
2022-07-31T12:08:35.330Z,31.64
2022-07-31T12:11:05.171Z,31.69
2022-07-31T12:13:32.492Z,31.12
2022-07-31T12:16:05.130Z,30.91
2022-07-31T12:18:59.045Z,30.72
2022-07-31T12:21:39.747Z,29.34
2022-07-31T12:24:14.490Z,29.51
2022-07-31T12:26:52.068Z,29.72
2022-07-31T12:29:20.199Z,29.46
2022-07-31T12:31:48.283Z,29.15
2022-07-31T12:34:42.873Z,28.29
2022-07-31T12:37:15.461Z,28.87
2022-07-31T12:40:00.989Z,28.49
2022-07-31T12:42:40.730Z,29.30
2022-07-31T12:45:19.281Z,28.58
2022-07-31T12:47:51.423Z,28.90
2022-07-31T12:50:25.613Z,28.02
2022-07-31T12:52:53.589Z,28.58
2022-07-31T12:55:20.972Z,28.61
2022-07-31T12:57:51.035Z,28.35
2022-07-31T13:00:23.116Z,28.23
2022-07-31T13:02:52.275Z,28.41
2022-07-31T13:05:19.877Z,27.18
2022-07-31T13:07:47.312Z,26.37
2022-07-31T13:10:22.206Z,26.12
2022-07-31T13:12:52.877Z,25.23
2022-07-31T13:15:29.461Z,24.88
2022-07-31T13:17:59.806Z,23.81
2022-07-31T13:20:27.005Z,23.96
2022-07-31T13:22:54.211Z,24.51
2022-07-31T13:25:21.279Z,25.37
2022-07-31T13:27:48.341Z,26.03
2022-07-31T13:30:16.373Z,26.71
2022-07-31T13:32:43.385Z,27.37
2022-07-31T13:35:27.192Z,26.71
2022-07-31T13:37:56.344Z,26.96
2022-07-31T13:40:42.239Z,27.17
2022-07-31T13:43:09.463Z,26.63
2022-07-31T13:45:37.037Z,26.83
2022-07-31T13:48:09.010Z,26.84
2022-07-31T13:50:39.565Z,25.87
2022-07-31T13:53:06.721Z,25.45
2022-07-31T13:55:33.888Z,25.26
2022-07-31T13:58:01.678Z,24.82
2022-07-31T14:00:30.812Z,23.73
2022-07-31T14:02:58.356Z,23.56
2022-07-31T14:05:27.519Z,22.48
2022-07-31T14:07:56.095Z,20.82
2022-07-31T14:10:23.952Z,20.57
2022-07-31T14:12:51.317Z,19.43
2022-07-31T14:15:18.720Z,18.84
2022-07-31T14:17:46.385Z,18.08
2022-07-31T14:20:13.952Z,17.86
2022-07-31T14:22:42.238Z,17.67
2022-07-31T14:25:12.115Z,18.91
2022-07-31T14:27:39.776Z,19.88
2022-07-31T14:30:09.042Z,20.00
2022-07-31T14:32:36.293Z,19.45
2022-07-31T14:35:08.128Z,18.70
2022-07-31T14:37:36.660Z,18.12
2022-07-31T14:40:08.170Z,17.43
2022-07-31T14:42:35.587Z,17.31
2022-07-31T14:45:03.214Z,16.45
2022-07-31T14:47:34.305Z,16.86
2022-07-31T14:50:06.941Z,17.83
2022-07-31T14:52:37.271Z,16.90
2022-07-31T14:55:07.829Z,16.06
2022-07-31T14:57:34.909Z,15.90
2022-07-31T15:00:02.146Z,16.07
2022-07-31T15:02:29.244Z,16.60
2022-07-31T15:04:56.897Z,15.60
2022-07-31T15:07:45.893Z,14.81
2022-07-31T15:10:12.220Z,15.49
2022-07-31T15:12:40.212Z,14.71
2022-07-31T15:15:08.539Z,14.39
2022-07-31T15:17:35.727Z,15.16
2022-07-31T15:20:02.883Z,14.38
2022-07-31T15:22:29.933Z,14.28
2022-07-31T15:24:57.109Z,13.33
2022-07-31T15:27:25.024Z,13.37
2022-07-31T15:30:00.692Z,12.60
2022-07-31T15:32:39.247Z,13.33
2022-07-31T15:35:09.460Z,13.31
2022-07-31T15:37:38.899Z,13.13
2022-07-31T15:40:09.769Z,14.81
2022-07-31T15:42:40.506Z,13.90
2022-07-31T15:45:13.593Z,13.29
2022-07-31T15:47:42.423Z,13.08
2022-07-31T15:50:12.191Z,12.74
2022-07-31T15:52:39.974Z,12.66
2022-07-31T15:55:08.784Z,12.48
2022-07-31T15:57:35.963Z,12.23
2022-07-31T16:00:04.524Z,12.64
2022-07-31T16:02:38.236Z,13.01
2022-07-31T16:05:12.118Z,12.36
2022-07-31T16:08:32.747Z,12.09
2022-07-31T16:10:38.559Z,13.30
2022-07-31T16:13:05.787Z,13.48
2022-07-31T16:15:34.644Z,13.22
2022-07-31T16:18:02.272Z,13.16
2022-07-31T16:20:29.338Z,13.06
2022-07-31T16:23:00.993Z,12.52
2022-07-31T16:25:34.806Z,12.42
2022-07-31T16:28:04.270Z,13.85
2022-07-31T16:30:32.001Z,13.04
2022-07-31T16:32:59.275Z,12.77
2022-07-31T16:35:26.546Z,12.93
2022-07-31T16:37:54.742Z,12.79
2022-07-31T16:40:28.555Z,12.89
2022-07-31T16:43:48.121Z,12.77
2022-07-31T16:45:52.233Z,13.43
2022-07-31T16:48:19.628Z,13.59
2022-07-31T16:50:48.401Z,13.97
2022-07-31T16:54:12.706Z,13.32
2022-07-31T16:56:16.105Z,13.30
2022-07-31T16:58:44.062Z,12.53
2022-07-31T17:01:57.905Z,14.70
2022-07-31T17:04:03.584Z,16.09
2022-07-31T17:06:35.959Z,15.42
2022-07-31T17:09:16.963Z,14.01
2022-07-31T17:11:50.975Z,14.75
2022-07-31T17:14:27.188Z,16.12
2022-07-31T17:16:55.690Z,16.45
2022-07-31T17:19:41.235Z,15.23
2022-07-31T17:22:17.480Z,16.16
2022-07-31T17:24:50.437Z,15.07
2022-07-31T17:27:19.206Z,14.19
2022-07-31T17:29:46.278Z,13.98
2022-07-31T17:32:13.673Z,14.41
2022-07-31T17:34:44.890Z,15.89
2022-07-31T17:37:12.843Z,16.35
2022-07-31T17:39:39.913Z,17.04
2022-07-31T17:42:09.300Z,17.78
2022-07-31T17:44:37.891Z,18.74
2022-07-31T17:47:08.269Z,19.91
2022-07-31T17:49:35.808Z,20.98
2022-07-31T17:52:03.246Z,21.53
2022-07-31T17:54:32.535Z,21.52
2022-07-31T17:56:59.705Z,21.63
2022-07-31T17:59:28.073Z,22.00
2022-07-31T18:02:00.315Z,22.05
2022-07-31T18:04:33.404Z,22.92
2022-07-31T18:07:04.161Z,23.14
2022-07-31T18:09:32.007Z,23.46
2022-07-31T18:11:59.134Z,23.57
2022-07-31T18:14:26.711Z,23.62
2022-07-31T18:16:54.261Z,23.89
2022-07-31T18:19:22.492Z,24.16
2022-07-31T18:21:51.335Z,24.81
2022-07-31T18:24:20.054Z,24.95
2022-07-31T18:26:47.625Z,25.38
2022-07-31T18:29:16.897Z,25.51
2022-07-31T18:31:45.368Z,25.62
2022-07-31T18:34:13.193Z,26.03
2022-07-31T18:36:40.823Z,26.07
2022-07-31T18:39:07.973Z,26.38
2022-07-31T18:41:35.097Z,26.58
2022-07-31T18:44:02.205Z,26.94
2022-07-31T18:46:29.316Z,27.18
2022-07-31T18:48:56.926Z,27.32
2022-07-31T18:51:29.143Z,27.71
2022-07-31T18:53:56.408Z,27.93
2022-07-31T18:56:25.233Z,28.19
2022-07-31T18:58:53.900Z,28.20
2022-07-31T19:01:21.484Z,29.10
2022-07-31T19:03:49.231Z,29.02
2022-07-31T19:06:17.423Z,28.98
2022-07-31T19:08:44.962Z,29.06
2022-07-31T19:11:12.443Z,29.14
2022-07-31T19:13:39.659Z,29.49
2022-07-31T19:16:06.881Z,29.18
2022-07-31T19:18:34.431Z,29.57
2022-07-31T19:21:21.355Z,29.98
2022-07-31T19:23:49.676Z,29.81
2022-07-31T19:26:16.956Z,29.98
2022-07-31T19:28:44.274Z,29.93
2022-07-31T19:31:13.393Z,30.16
2022-07-31T19:33:40.914Z,31.41
2022-07-31T19:36:08.382Z,31.25
2022-07-31T19:38:40.861Z,30.82
2022-07-31T19:41:07.923Z,31.54
2022-07-31T19:43:35.720Z,30.98
2022-07-31T19:46:11.825Z,31.25
2022-07-31T19:48:44.866Z,31.43
2022-07-31T19:51:15.403Z,31.74
2022-07-31T19:53:43.494Z,31.78
2022-07-31T19:56:15.802Z,32.12
2022-07-31T19:58:48.009Z,32.69
2022-07-31T20:01:15.527Z,33.48
2022-07-31T20:03:43.090Z,32.54
2022-07-31T20:06:10.190Z,32.48
2022-07-31T20:08:37.351Z,33.23
2022-07-31T20:11:05.382Z,32.48
2022-07-31T20:13:34.251Z,32.60
2022-07-31T20:16:01.839Z,32.67
2022-07-31T20:18:30.576Z,32.84
2022-07-31T20:21:07.283Z,33.06
2022-07-31T20:23:38.175Z,32.71
2022-07-31T20:26:10.687Z,33.19
2022-07-31T20:28:40.393Z,33.59
2022-07-31T20:31:17.242Z,34.46
2022-07-31T20:33:57.612Z,33.93
2022-07-31T20:36:26.853Z,33.98
2022-07-31T20:38:54.450Z,34.41
2022-07-31T20:41:21.537Z,34.42
2022-07-31T20:43:48.662Z,34.63
2022-07-31T20:46:16.746Z,35.06
2022-07-31T20:48:45.268Z,35.02
2022-07-31T20:51:20.563Z,35.12
2022-07-31T20:53:49.422Z,35.53
2022-07-31T20:56:16.872Z,35.59
2022-07-31T20:58:48.293Z,35.88
2022-07-31T21:01:20.165Z,35.81
2022-07-31T21:03:48.488Z,36.42
2022-07-31T21:06:16.589Z,36.38
2022-07-31T21:08:44.337Z,37.00
2022-07-31T21:11:11.867Z,36.69
2022-07-31T21:13:39.575Z,37.23
2022-07-31T21:16:06.793Z,37.61
2022-07-31T21:18:37.075Z,37.96
2022-07-31T21:21:06.445Z,38.09
2022-07-31T21:23:33.976Z,38.44
2022-07-31T21:26:02.706Z,38.69
2022-07-31T21:28:30.345Z,39.00
2022-07-31T21:30:57.869Z,39.22
2022-07-31T21:33:27.390Z,39.46
2022-07-31T21:35:55.426Z,39.83
2022-07-31T21:38:23.590Z,40.03
2022-07-31T21:40:51.828Z,40.49
2022-07-31T21:43:22.700Z,40.36
2022-07-31T21:45:57.320Z,40.38
2022-07-31T21:48:29.676Z,41.24
2022-07-31T21:50:57.545Z,41.45
2022-07-31T21:53:25.037Z,41.82
2022-07-31T21:55:52.420Z,41.33
2022-07-31T21:58:19.412Z,42.22
2022-07-31T22:00:46.815Z,42.06
2022-07-31T22:03:13.863Z,42.51
2022-07-31T22:05:59.647Z,42.87
2022-07-31T22:08:26.653Z,43.18
2022-07-31T22:10:53.893Z,43.48
2022-07-31T22:13:21.292Z,43.90
2022-07-31T22:15:52.670Z,44.15
2022-07-31T22:18:33.406Z,44.73
2022-07-31T22:21:04.178Z,44.70
2022-07-31T22:23:31.623Z,46.29
2022-07-31T22:25:59.021Z,46.11
2022-07-31T22:28:27.294Z,46.11
2022-07-31T22:30:55.693Z,47.01
2022-07-31T22:33:23.601Z,47.98
2022-07-31T22:35:59.812Z,47.43
2022-07-31T22:38:30.386Z,48.40
2022-07-31T22:40:59.631Z,48.02
2022-07-31T22:44:14.159Z,48.36
2022-07-31T22:46:15.360Z,48.98
2022-07-31T22:48:44.122Z,49.60
2022-07-31T22:51:14.290Z,49.08
2022-07-31T22:53:43.542Z,49.28
2022-07-31T22:56:10.656Z,49.26
2022-07-31T22:58:37.733Z,51.00
2022-07-31T23:01:04.747Z,50.95
2022-07-31T23:03:31.726Z,51.55
2022-07-31T23:06:02.520Z,54.29
2022-07-31T23:08:50.567Z,58.53
2022-07-31T23:11:20.819Z,59.03
2022-07-31T23:13:47.807Z,58.75
2022-07-31T23:16:14.858Z,57.36
2022-07-31T23:18:41.827Z,59.72
2022-07-31T23:21:12.209Z,59.30
2022-07-31T23:23:39.217Z,58.95
2022-07-31T23:26:06.341Z,59.75
2022-07-31T23:28:33.747Z,62.04
2022-07-31T23:31:00.726Z,63.33
2022-07-31T23:33:27.735Z,63.76
2022-07-31T23:35:54.811Z,64.06
2022-07-31T23:38:21.910Z,65.65
2022-07-31T23:40:48.853Z,67.41
2022-07-31T23:43:20.610Z,68.97
2022-07-31T23:45:47.982Z,70.27
2022-07-31T23:48:15.487Z,71.05
2022-07-31T23:50:44.314Z,71.48
2022-07-31T23:53:11.370Z,72.84
2022-07-31T23:55:39.219Z,73.37
2022-07-31T23:58:10.378Z,72.61
